Time;durP1;ratioP1;P1;durP2;ratioP2;P2;SDS_P1;SDS_P2;PMS_P1;PMS_P2;Temp;Humidity;BMP_temperature;BMP_pressure;BME280_temperature;BME280_humidity;BME280_pressure;Samples;Min_cycle;Max_cycle;Signal;HPM_P1;HPM_P2
2022/05/27 00:01:56;;;;;;;7.47;6.40;;;;;;;;;;5108506;28;20389;-73
2022/05/27 00:04:23;;;;;;;8.52;5.72;;;;;;;;;;5108532;28;20058;-74
2022/05/27 00:06:50;;;;;;;8.70;5.80;;;;;;;;;;5108216;28;20038;-73
2022/05/27 00:09:16;;;;;;;12.17;5.90;;;;;;;;;;5108119;28;20023;-75
2022/05/27 00:11:43;;;;;;;11.03;6.03;;;;;;;;;;5111815;28;20374;-75
2022/05/27 00:14:10;;;;;;;8.73;5.60;;;;;;;;;;5113788;28;20174;-73
2022/05/27 00:16:37;;;;;;;5.53;3.83;;;;;;;;;;5113635;28;20027;-73
2022/05/27 00:19:03;;;;;;;4.10;2.87;;;;;;;;;;5113666;28;20020;-73
2022/05/27 00:21:30;;;;;;;5.00;2.87;;;;;;;;;;5113803;28;20096;-73
2022/05/27 00:23:57;;;;;;;4.00;2.00;;;;;;;;;;5109792;28;20024;-73
2022/05/27 00:26:23;;;;;;;6.17;2.13;;;;;;;;;;5107728;28;20050;-73
2022/05/27 00:28:50;;;;;;;3.60;1.80;;;;;;;;;;5107610;28;20108;-74
2022/05/27 00:31:20;;;;;;;2.57;1.60;;;;;;;;;;5107945;28;20023;-73
2022/05/27 00:33:47;;;;;;;2.53;1.30;;;;;;;;;;5110877;28;20023;-73
2022/05/27 00:36:15;;;;;;;2.70;1.07;;;;;;;;;;5112888;28;20068;-73
2022/05/27 00:38:42;;;;;;;1.30;0.80;;;;;;;;;;5113025;28;20024;-73
2022/05/27 00:41:10;;;;;;;3.03;1.07;;;;;;;;;;5113273;28;20024;-73
2022/05/27 00:43:36;;;;;;;1.13;0.83;;;;;;;;;;5113358;28;20016;-73
2022/05/27 00:46:20;;;;;;;0.90;0.67;;;;;;;;;;5110233;28;20409;-73
2022/05/27 00:48:50;;;;;;;0.90;0.70;;;;;;;;;;5107694;28;20028;-73
2022/05/27 00:51:20;;;;;;;1.80;1.00;;;;;;;;;;5107001;28;20020;-73
2022/05/27 00:53:50;;;;;;;2.10;1.00;;;;;;;;;;5107441;28;20477;-73
2022/05/27 00:56:19;;;;;;;2.03;0.77;;;;;;;;;;5109775;28;20106;-71
2022/05/27 00:58:51;;;;;;;2.40;0.93;;;;;;;;;;5113074;28;20020;-71
2022/05/27 01:01:17;;;;;;;1.53;0.90;;;;;;;;;;5113138;28;20535;-71
2022/05/27 01:03:44;;;;;;;3.97;1.20;;;;;;;;;;5113031;28;20073;-71
2022/05/27 01:06:11;;;;;;;6.70;1.40;;;;;;;;;;5112630;28;20035;-71
2022/05/27 01:08:38;;;;;;;2.60;1.03;;;;;;;;;;5109786;28;20024;-71
2022/05/27 01:11:23;;;;;;;2.53;1.33;;;;;;;;;;5107038;28;20413;-74
2022/05/27 01:14:14;;;;;;;4.60;1.90;;;;;;;;;;5107227;28;20028;-71
2022/05/27 01:16:44;;;;;;;5.50;2.97;;;;;;;;;;5107147;28;20020;-71
2022/05/27 01:22:11;;;;;;;7.05;2.70;;;;;;;;;;5112767;28;20081;-71
2022/05/27 01:24:40;;;;;;;4.43;2.53;;;;;;;;;;5112697;28;20020;-71
2022/05/27 01:27:16;;;;;;;4.10;2.40;;;;;;;;;;5112378;28;20535;-73
2022/05/27 01:29:43;;;;;;;4.90;2.50;;;;;;;;;;5112295;28;20028;-71
2022/05/27 01:32:16;;;;;;;6.77;2.43;;;;;;;;;;5107102;28;20034;-71
2022/05/27 01:34:52;;;;;;;8.03;2.50;;;;;;;;;;5107031;28;20481;-71
2022/05/27 01:37:18;;;;;;;4.63;2.10;;;;;;;;;;5106905;28;20081;-71
2022/05/27 01:40:07;;;;;;;6.97;2.50;;;;;;;;;;5106545;28;20028;-71
2022/05/27 01:42:59;;;;;;;4.50;2.20;;;;;;;;;;5112325;28;20051;-70
2022/05/27 01:45:37;;;;;;;4.27;2.43;;;;;;;;;;5108052;28;20097;-75
2022/05/27 01:48:12;;;;;;;5.33;2.70;;;;;;;;;;5114655;28;20020;-70
2022/05/27 01:50:57;;;;;;;3.93;2.13;;;;;;;;;;5116623;28;20061;-70
2022/05/27 01:53:27;;;;;;;7.38;2.50;;;;;;;;;;5113314;28;20027;-70
2022/05/27 01:56:17;;;;;;;3.67;2.07;;;;;;;;;;5111029;28;20445;-70
2022/05/27 01:58:55;;;;;;;4.10;2.43;;;;;;;;;;5110913;28;20039;-70
2022/05/27 02:01:27;;;;;;;4.77;2.10;;;;;;;;;;5110034;28;20023;-70
2022/05/27 02:03:58;;;;;;;3.97;2.37;;;;;;;;;;5114384;28;20027;-70
2022/05/27 02:06:29;;;;;;;4.27;2.37;;;;;;;;;;5116205;28;20036;-70
2022/05/27 02:09:00;;;;;;;4.00;2.10;;;;;;;;;;5116208;28;20343;-70
2022/05/27 02:11:28;;;;;;;7.03;2.70;;;;;;;;;;5115865;28;20020;-70
2022/05/27 02:14:01;;;;;;;4.87;2.60;;;;;;;;;;5116150;28;20027;-70
2022/05/27 02:16:34;;;;;;;3.27;2.00;;;;;;;;;;5111309;28;20497;-70
2022/05/27 02:19:13;;;;;;;4.57;2.37;;;;;;;;;;5110058;28;20054;-72
2022/05/27 02:21:45;;;;;;;7.40;2.47;;;;;;;;;;5110647;28;20485;-70
2022/05/27 02:24:14;;;;;;;5.83;2.63;;;;;;;;;;5110256;28;20027;-70
2022/05/27 02:26:44;;;;;;;3.77;2.57;;;;;;;;;;5114063;28;20042;-70
2022/05/27 02:29:15;;;;;;;5.93;2.70;;;;;;;;;;5115933;28;20023;-70
2022/05/27 02:31:46;;;;;;;3.30;2.20;;;;;;;;;;5115884;28;20019;-70
2022/05/27 02:37:21;;;;;;;3.20;2.37;;;;;;;;;;5114966;28;20097;-70
2022/05/27 02:39:47;;;;;;;5.83;2.63;;;;;;;;;;5110157;28;20031;-70
2022/05/27 02:42:26;;;;;;;3.63;2.17;;;;;;;;;;5110288;28;20023;-70
2022/05/27 02:45:17;;;;;;;3.93;2.20;;;;;;;;;;5109309;28;20020;-70
2022/05/27 02:47:47;;;;;;;4.07;2.47;;;;;;;;;;5095299;28;20489;-70
2022/05/27 02:50:20;;;;;;;8.47;2.67;;;;;;;;;;5115686;28;20023;-70
2022/05/27 02:53:12;;;;;;;5.73;2.83;;;;;;;;;;5115586;28;20054;-70
2022/05/27 02:55:45;;;;;;;4.80;2.70;;;;;;;;;;5115425;28;20015;-70
2022/05/27 02:58:11;;;;;;;5.13;2.63;;;;;;;;;;5114646;28;20019;-71
2022/05/27 03:00:41;;;;;;;5.80;2.63;;;;;;;;;;5112142;28;20045;-70
2022/05/27 03:03:08;;;;;;;5.93;3.07;;;;;;;;;;5109663;28;20028;-71
2022/05/27 03:05:37;;;;;;;4.40;2.60;;;;;;;;;;5108836;28;20028;-70
2022/05/27 03:08:27;;;;;;;3.53;2.27;;;;;;;;;;5109500;28;20035;-70
2022/05/27 03:11:12;;;;;;;4.47;2.93;;;;;;;;;;5101980;28;20436;-70
2022/05/27 03:13:42;;;;;;;5.05;2.63;;;;;;;;;;5114436;28;20024;-70
2022/05/27 03:16:14;;;;;;;4.13;2.40;;;;;;;;;;5115022;28;20043;-70
2022/05/27 03:18:46;;;;;;;5.33;2.47;;;;;;;;;;5115160;28;20023;-70
2022/05/27 03:21:27;;;;;;;4.30;2.20;;;;;;;;;;5114965;28;20498;-70
2022/05/27 03:24:08;;;;;;;4.87;2.50;;;;;;;;;;5109175;28;20438;-70
2022/05/27 03:26:34;;;;;;;7.33;2.77;;;;;;;;;;5109326;28;20478;-70
2022/05/27 03:29:20;;;;;;;3.67;2.20;;;;;;;;;;5108917;28;20024;-70
2022/05/27 03:31:46;;;;;;;;;;;;;;;;;;5109435;28;20033;-70
2022/05/27 03:34:29;;;;;;;9.70;2.80;;;;;;;;;;5113715;28;19912;-70
2022/05/27 03:37:14;;;;;;;6.60;2.90;;;;;;;;;;5114465;28;20355;-70
2022/05/27 03:39:54;;;;;;;5.35;2.90;;;;;;;;;;5114522;28;20039;-70
2022/05/27 03:42:24;;;;;;;6.57;2.60;;;;;;;;;;5114533;28;20019;-70
2022/05/27 03:45:10;;;;;;;4.47;2.80;;;;;;;;;;5112262;28;20484;-70
2022/05/27 03:47:38;;;;;;;3.20;2.20;;;;;;;;;;5108659;28;20143;-69
2022/05/27 03:50:06;;;;;;;6.17;2.67;;;;;;;;;;5108873;28;20019;-71
2022/05/27 03:52:42;;;;;;;4.60;2.80;;;;;;;;;;5108305;28;20419;-72
2022/05/27 03:55:11;;;;;;;4.33;2.73;;;;;;;;;;5110576;28;20031;-71
2022/05/27 03:57:37;;;;;;;5.17;3.10;;;;;;;;;;5113961;28;20108;-71
2022/05/27 04:00:05;;;;;;;5.27;2.80;;;;;;;;;;5114039;28;20034;-71
2022/05/27 04:02:32;;;;;;;5.13;2.87;;;;;;;;;;5113935;28;20118;-71
2022/05/27 04:04:58;;;;;;;5.37;2.53;;;;;;;;;;5113876;28;20509;-71
2022/05/27 04:07:25;;;;;;;4.70;2.73;;;;;;;;;;5111299;28;20474;-71
2022/05/27 04:09:52;;;;;;;4.10;2.63;;;;;;;;;;5107400;28;20069;-71
2022/05/27 04:12:20;;;;;;;5.33;2.70;;;;;;;;;;5108153;28;20023;-71
2022/05/27 04:14:50;;;;;;;5.43;2.67;;;;;;;;;;5108278;28;20434;-71
2022/05/27 04:17:32;;;;;;;5.80;2.90;;;;;;;;;;5109626;28;20043;-71
2022/05/27 04:20:00;;;;;;;3.27;2.20;;;;;;;;;;5113612;28;20024;-71
2022/05/27 04:22:27;;;;;;;5.80;2.63;;;;;;;;;;5113270;28;20100;-71
2022/05/27 04:24:54;;;;;;;3.30;2.40;;;;;;;;;;5113737;28;20538;-71
2022/05/27 04:27:21;;;;;;;5.93;2.73;;;;;;;;;;5113674;28;20039;-71
2022/05/27 04:29:49;;;;;;;4.00;2.63;;;;;;;;;;5111336;28;20110;-71
2022/05/27 04:32:16;;;;;;;4.63;2.97;;;;;;;;;;5108049;28;20445;-71
2022/05/27 04:34:43;;;;;;;5.20;2.83;;;;;;;;;;5107339;28;20038;-76
2022/05/27 04:37:10;;;;;;;7.40;3.27;;;;;;;;;;5107600;28;20062;-71
2022/05/27 04:39:37;;;;;;;7.20;3.47;;;;;;;;;;5108902;28;20111;-71
2022/05/27 04:42:04;;;;;;;6.80;3.40;;;;;;;;;;5113509;28;20077;-71
2022/05/27 04:44:31;;;;;;;6.10;2.97;;;;;;;;;;5113269;28;20027;-71
2022/05/27 04:46:58;;;;;;;8.73;3.47;;;;;;;;;;5113082;28;20118;-71
2022/05/27 04:52:09;;;;;;;5.43;2.95;;;;;;;;;;5111057;28;20433;-71
2022/05/27 04:54:37;;;;;;;4.23;2.87;;;;;;;;;;5107153;28;20036;-71
2022/05/27 04:57:03;;;;;;;4.37;2.67;;;;;;;;;;5107586;28;20023;-71
2022/05/27 04:59:35;;;;;;;5.77;3.00;;;;;;;;;;5107204;28;20034;-71
2022/05/27 05:02:05;;;;;;;6.17;3.27;;;;;;;;;;5108647;28;20016;-71
2022/05/27 05:04:31;;;;;;;6.70;3.73;;;;;;;;;;5112504;28;20055;-71
2022/05/27 05:07:03;;;;;;;5.07;3.13;;;;;;;;;;5112816;28;20036;-71
2022/05/27 05:09:30;;;;;;;5.27;2.83;;;;;;;;;;5113048;28;20027;-71
2022/05/27 05:11:57;;;;;;;5.47;3.43;;;;;;;;;;5112396;28;20035;-71
2022/05/27 05:14:24;;;;;;;4.83;3.20;;;;;;;;;;5110733;28;20049;-71
2022/05/27 05:16:51;;;;;;;7.13;3.70;;;;;;;;;;5107127;28;20051;-71
2022/05/27 05:19:18;;;;;;;10.43;4.07;;;;;;;;;;5106984;28;20020;-76
2022/05/27 05:21:45;;;;;;;7.23;4.20;;;;;;;;;;5107038;28;20020;-71
2022/05/27 05:24:12;;;;;;;9.67;5.37;;;;;;;;;;5107858;28;20452;-71
2022/05/27 05:26:38;;;;;;;15.17;6.30;;;;;;;;;;5112624;28;20020;-71
2022/05/27 05:29:08;;;;;;;7.60;5.10;;;;;;;;;;5112627;28;20419;-71
2022/05/27 05:31:35;;;;;;;10.47;5.03;;;;;;;;;;5112617;28;20347;-71
2022/05/27 05:34:02;;;;;;;9.60;5.00;;;;;;;;;;5112692;28;20023;-71
2022/05/27 05:36:29;;;;;;;6.50;3.83;;;;;;;;;;5110808;28;20427;-72
2022/05/27 05:38:57;;;;;;;6.70;4.07;;;;;;;;;;5106889;28;20043;-70
2022/05/27 05:41:27;;;;;;;8.23;4.47;;;;;;;;;;5107110;28;20047;-70
2022/05/27 05:43:55;;;;;;;8.23;4.30;;;;;;;;;;5107048;28;20023;-69
2022/05/27 05:46:22;;;;;;;9.67;4.90;;;;;;;;;;5107010;28;20035;-69
2022/05/27 05:48:49;;;;;;;6.40;4.27;;;;;;;;;;5112136;28;20386;-69
2022/05/27 05:51:15;;;;;;;8.17;4.50;;;;;;;;;;5112262;28;20023;-75
2022/05/27 05:53:42;;;;;;;7.77;4.53;;;;;;;;;;5112262;28;20054;-69
2022/05/27 05:56:09;;;;;;;7.70;4.00;;;;;;;;;;5112572;28;20019;-69
2022/05/27 05:58:35;;;;;;;7.47;4.40;;;;;;;;;;5111544;28;20027;-69
2022/05/27 06:01:02;;;;;;;8.40;5.40;;;;;;;;;;5106759;28;20055;-69
2022/05/27 06:03:29;;;;;;;13.33;7.57;;;;;;;;;;5106624;28;20043;-69
2022/05/27 06:05:55;;;;;;;12.57;7.60;;;;;;;;;;5106828;28;20390;-69
2022/05/27 06:08:22;;;;;;;15.47;8.47;;;;;;;;;;5106410;28;20032;-69
2022/05/27 06:10:49;;;;;;;13.23;7.37;;;;;;;;;;5111842;28;20039;-69
2022/05/27 06:13:16;;;;;;;11.77;9.13;;;;;;;;;;5112177;28;20098;-69
2022/05/27 06:15:43;;;;;;;13.20;9.10;;;;;;;;;;5112345;28;20106;-70
2022/05/27 06:18:12;;;;;;;13.40;8.50;;;;;;;;;;5111830;28;20012;-70
2022/05/27 06:20:40;;;;;;;12.93;8.70;;;;;;;;;;5111681;28;20062;-69
2022/05/27 06:23:08;;;;;;;12.33;7.80;;;;;;;;;;5106468;28;20023;-70
2022/05/27 06:25:34;;;;;;;11.13;7.17;;;;;;;;;;5106152;28;20045;-70
2022/05/27 06:36:17;;;;;;;12.10;6.05;;;;;;;;;;5095161;28;20596;-69
2022/05/27 06:38:45;;;;;;;10.27;4.87;;;;;;;;;;5095175;28;20028;-69
2022/05/27 06:41:11;;;;;;;9.63;6.10;;;;;;;;;;5095221;28;20016;-69
2022/05/27 06:43:38;;;;;;;21.30;8.23;;;;;;;;;;5097880;28;20108;-69
2022/05/27 06:46:05;;;;;;;8.60;5.93;;;;;;;;;;5109568;28;20035;-74
2022/05/27 06:48:31;;;;;;;10.83;6.07;;;;;;;;;;5110002;28;20103;-70
2022/05/27 06:51:03;;;;;;;10.30;6.43;;;;;;;;;;5110130;28;20567;-70
2022/05/27 06:53:30;;;;;;;15.33;8.10;;;;;;;;;;5110481;28;20376;-69
2022/05/27 06:55:57;;;;;;;13.10;8.33;;;;;;;;;;5115029;28;20107;-69
2022/05/27 06:58:23;;;;;;;12.07;7.87;;;;;;;;;;5115427;28;20530;-69
2022/05/27 07:00:50;;;;;;;14.43;8.37;;;;;;;;;;5115232;28;20101;-69
2022/05/27 07:03:17;;;;;;;15.87;9.20;;;;;;;;;;5115037;28;20095;-69
2022/05/27 07:05:44;;;;;;;14.03;8.83;;;;;;;;;;5114242;28;20370;-69
2022/05/27 07:08:12;;;;;;;13.83;9.20;;;;;;;;;;5109292;28;20020;-69
2022/05/27 07:10:39;;;;;;;14.40;8.33;;;;;;;;;;5109060;28;20027;-69
2022/05/27 07:13:06;;;;;;;14.07;8.63;;;;;;;;;;5109660;28;20058;-69
2022/05/27 07:15:32;;;;;;;10.87;6.93;;;;;;;;;;5109488;28;20027;-69
2022/05/27 07:17:59;;;;;;;14.17;7.37;;;;;;;;;;5115036;28;20024;-68
2022/05/27 07:20:26;;;;;;;12.30;8.20;;;;;;;;;;5114264;28;20028;-69
2022/05/27 07:22:52;;;;;;;16.93;9.23;;;;;;;;;;5114911;28;20020;-69
2022/05/27 07:25:19;;;;;;;13.83;8.63;;;;;;;;;;5115001;28;20020;-69
2022/05/27 07:27:46;;;;;;;18.73;9.60;;;;;;;;;;5114499;28;20388;-69
2022/05/27 07:30:16;;;;;;;21.20;10.10;;;;;;;;;;5109123;28;20093;-69
2022/05/27 07:32:43;;;;;;;14.13;9.40;;;;;;;;;;5108589;28;20028;-70
2022/05/27 07:35:11;;;;;;;16.63;9.70;;;;;;;;;;5108879;28;20024;-70
2022/05/27 07:37:38;;;;;;;16.57;9.60;;;;;;;;;;5109028;28;20031;-69
2022/05/27 07:40:05;;;;;;;13.07;9.57;;;;;;;;;;5113556;28;20027;-69
2022/05/27 07:42:32;;;;;;;16.07;9.90;;;;;;;;;;5114463;28;20035;-69
2022/05/27 07:44:58;;;;;;;12.63;9.17;;;;;;;;;;5114157;28;20103;-69
2022/05/27 07:47:25;;;;;;;14.87;9.73;;;;;;;;;;5114229;28;20389;-69
2022/05/27 07:49:52;;;;;;;14.50;9.87;;;;;;;;;;5113733;28;20054;-70
2022/05/27 07:52:18;;;;;;;16.73;9.83;;;;;;;;;;5108499;28;20016;-70
2022/05/27 07:54:45;;;;;;;13.33;10.57;;;;;;;;;;5108806;28;20034;-69
2022/05/27 07:57:24;;;;;;;16.67;10.43;;;;;;;;;;5108646;28;20032;-69
2022/05/27 07:59:51;;;;;;;16.20;10.33;;;;;;;;;;5108475;28;20028;-70
2022/05/27 08:02:18;;;;;;;13.97;10.33;;;;;;;;;;5112855;28;20020;-69
2022/05/27 08:04:45;;;;;;;14.13;11.00;;;;;;;;;;5113943;28;20073;-69
2022/05/27 08:07:12;;;;;;;18.73;10.43;;;;;;;;;;5113536;28;20042;-69
2022/05/27 08:09:38;;;;;;;13.97;11.40;;;;;;;;;;5113785;28;20080;-69
2022/05/27 08:12:06;;;;;;;14.20;10.17;;;;;;;;;;5113780;28;20023;-69
2022/05/27 08:14:33;;;;;;;14.27;9.63;;;;;;;;;;5108487;28;20023;-69
2022/05/27 08:17:00;;;;;;;19.37;10.93;;;;;;;;;;5108273;28;20030;-69
2022/05/27 08:19:26;;;;;;;17.70;10.07;;;;;;;;;;5108125;28;20389;-69
2022/05/27 08:21:53;;;;;;;18.27;11.23;;;;;;;;;;5107863;28;20031;-69
2022/05/27 08:24:20;;;;;;;16.30;10.27;;;;;;;;;;5111940;28;20019;-69
2022/05/27 08:26:49;;;;;;;12.70;10.27;;;;;;;;;;5113644;28;20027;-69
2022/05/27 08:29:16;;;;;;;15.63;11.23;;;;;;;;;;5113740;28;20020;-69
2022/05/27 08:31:43;;;;;;;23.50;10.83;;;;;;;;;;5113273;28;20100;-69
2022/05/27 08:39:42;;;;;;;16.70;10.30;;;;;;;;;;5089827;28;19965;-69
2022/05/27 08:42:09;;;;;;;15.37;9.90;;;;;;;;;;5107350;28;20023;-69
2022/05/27 08:44:39;;;;;;;16.70;10.13;;;;;;;;;;5107664;28;20027;-69
2022/05/27 08:47:13;;;;;;;19.60;10.27;;;;;;;;;;5112336;28;20035;-70
2022/05/27 08:49:43;;;;;;;16.23;10.13;;;;;;;;;;5112953;28;20358;-69
2022/05/27 08:52:09;;;;;;;19.47;9.90;;;;;;;;;;5113147;28;20036;-69
2022/05/27 08:54:41;;;;;;;14.30;9.93;;;;;;;;;;5113005;28;20024;-69
2022/05/27 08:59:53;;;;;;;16.33;10.48;;;;;;;;;;5107500;28;20101;-69
2022/05/27 09:02:38;;;;;;;16.00;10.07;;;;;;;;;;5107356;28;20051;-69
2022/05/27 09:05:23;;;;;;;12.82;10.15;;;;;;;;;;5107269;28;20034;-69
2022/05/27 09:07:55;;;;;;;14.88;10.32;;;;;;;;;;5108204;28;20028;-69
2022/05/27 09:10:31;;;;;;;18.47;10.87;;;;;;;;;;5112740;28;20027;-69
2022/05/27 09:13:05;;;;;;;17.77;11.83;;;;;;;;;;5112806;28;20574;-69
2022/05/27 09:15:34;;;;;;;17.70;10.80;;;;;;;;;;5112898;28;20339;-69
2022/05/27 09:18:14;;;;;;;19.67;11.20;;;;;;;;;;5112396;28;20019;-69
2022/05/27 09:20:46;;;;;;;14.60;10.87;;;;;;;;;;5109925;28;20032;-70
2022/05/27 09:23:19;;;;;;;17.17;10.80;;;;;;;;;;5107171;28;20121;-69
2022/05/27 09:25:59;;;;;;;16.37;11.67;;;;;;;;;;5107037;28;20429;-70
2022/05/27 09:28:33;;;;;;;16.70;12.00;;;;;;;;;;5107004;28;20035;-69
2022/05/27 09:31:01;;;;;;;19.05;11.38;;;;;;;;;;5110000;28;20047;-70
2022/05/27 09:33:30;;;;;;;19.37;12.03;;;;;;;;;;5112257;28;20012;-69
2022/05/27 09:36:20;;;;;;;17.10;12.13;;;;;;;;;;5112541;28;20022;-69
2022/05/27 09:38:58;;;;;;;14.77;11.00;;;;;;;;;;5111356;28;20092;-69
2022/05/27 09:41:30;;;;;;;21.73;11.30;;;;;;;;;;5112553;28;20106;-69
2022/05/27 09:44:07;;;;;;;15.10;10.63;;;;;;;;;;5107519;28;20032;-69
2022/05/27 09:46:34;;;;;;;16.67;11.27;;;;;;;;;;5106495;28;20482;-69
2022/05/27 09:49:01;;;;;;;21.47;11.80;;;;;;;;;;5106836;28;20418;-69
2022/05/27 09:51:30;;;;;;;17.47;10.97;;;;;;;;;;5106953;28;20023;-69
2022/05/27 09:54:04;;;;;;;16.00;12.23;;;;;;;;;;5111352;28;20386;-69
2022/05/27 09:56:38;;;;;;;21.63;11.57;;;;;;;;;;5112409;28;20023;-68
2022/05/27 09:59:24;;;;;;;15.88;11.35;;;;;;;;;;5111979;28;20495;-69
2022/05/27 10:01:50;;;;;;;;;;;;;;;;;;5112407;28;20015;-69
2022/05/27 10:04:17;;;;;;;16.33;11.93;;;;;;;;;;5111994;28;19904;-69
2022/05/27 10:06:44;;;;;;;18.17;12.00;;;;;;;;;;5106623;28;20035;-69
2022/05/27 10:09:29;;;;;;;17.63;11.67;;;;;;;;;;5108800;28;20031;-73
2022/05/27 10:11:57;;;;;;;16.53;12.23;;;;;;;;;;5110270;28;20373;-69
2022/05/27 10:14:27;;;;;;;19.73;13.03;;;;;;;;;;5110915;28;20036;-69
2022/05/27 10:17:00;;;;;;;16.20;11.87;;;;;;;;;;5095842;28;20058;-69
2022/05/27 10:19:27;;;;;;;17.13;12.30;;;;;;;;;;5095519;28;20039;-69
2022/05/27 10:21:58;;;;;;;18.80;12.93;;;;;;;;;;5095467;28;20031;-69
2022/05/27 10:24:28;;;;;;;17.63;11.83;;;;;;;;;;5105290;28;20391;-69
2022/05/27 10:27:02;;;;;;;19.17;12.87;;;;;;;;;;5114841;28;20046;-68
2022/05/27 10:29:28;;;;;;;18.57;13.27;;;;;;;;;;5110295;28;20377;-69
2022/05/27 10:31:56;;;;;;;19.13;12.47;;;;;;;;;;5110421;28;20024;-68
2022/05/27 10:34:40;;;;;;;15.03;11.43;;;;;;;;;;5109880;28;20034;-69
2022/05/27 10:37:12;;;;;;;19.67;13.67;;;;;;;;;;5110848;28;20028;-69
2022/05/27 10:40:15;;;;;;;21.00;13.43;;;;;;;;;;5115660;28;20039;-68
2022/05/27 10:42:51;;;;;;;19.10;13.27;;;;;;;;;;5032879;28;20492;-69
2022/05/27 10:45:24;;;;;;;15.47;12.40;;;;;;;;;;5105391;28;20032;-69
2022/05/27 10:47:56;;;;;;;19.80;12.10;;;;;;;;;;5115386;28;20466;-69
2022/05/27 10:50:49;;;;;;;19.00;12.27;;;;;;;;;;5111355;28;20024;-69
2022/05/27 10:53:18;;;;;;;15.60;12.27;;;;;;;;;;5078337;28;20043;-69
2022/05/27 10:55:57;;;;;;;17.33;12.13;;;;;;;;;;5109917;28;20418;-69
2022/05/27 11:04:18;;;;;;;22.65;13.55;;;;;;;;;;5094915;28;20043;-69
2022/05/27 11:06:52;;;;;;;19.27;11.47;;;;;;;;;;5095001;28;20036;-69
2022/05/27 11:09:44;;;;;;;19.60;13.10;;;;;;;;;;5094882;28;20032;-68
2022/05/27 11:15:10;;;;;;;23.33;12.43;;;;;;;;;;5095401;28;20815;-69
2022/05/27 11:15:27;;;;;;;24.17;13.47;;;;;;;;;;5109441;28;20069;-69
2022/05/27 11:18:04;;;;;;;20.17;13.40;;;;;;;;;;5109490;28;20015;-69
2022/05/27 11:20:47;;;;;;;18.93;12.77;;;;;;;;;;5109084;28;20023;-69
2022/05/27 11:23:16;;;;;;;17.70;12.57;;;;;;;;;;5113871;28;20507;-69
2022/05/27 11:25:46;;;;;;;17.47;12.40;;;;;;;;;;5114017;28;20027;-69
2022/05/27 11:28:31;;;;;;;21.73;11.73;;;;;;;;;;5114581;28;20080;-68
2022/05/27 11:31:13;;;;;;;19.15;11.60;;;;;;;;;;5114799;28;20059;-68
2022/05/27 11:33:46;;;;;;;20.53;13.00;;;;;;;;;;5113768;28;20106;-69
2022/05/27 11:36:33;;;;;;;17.00;12.80;;;;;;;;;;5108595;28;20027;-69
2022/05/27 11:39:20;;;;;;;17.73;12.13;;;;;;;;;;5108912;28;20020;-69
2022/05/27 11:42:05;;;;;;;16.00;11.77;;;;;;;;;;5109022;28;20033;-69
2022/05/27 11:45:10;;;;;;;14.77;10.85;;;;;;;;;;5110903;28;20031;-68
2022/05/27 11:47:42;;;;;;;20.83;12.17;;;;;;;;;;5031305;28;20148;-68
2022/05/27 11:50:09;;;;;;;17.60;11.20;;;;;;;;;;5031765;28;20064;-68
2022/05/27 11:52:51;;;;;;;19.10;10.53;;;;;;;;;;5064228;28;20032;-69
2022/05/27 11:55:44;;;;;;;17.07;12.17;;;;;;;;;;5093456;28;20024;-69
2022/05/27 11:58:18;;;;;;;19.03;13.13;;;;;;;;;;5083822;28;20515;-69
2022/05/27 12:01:10;;;;;;;20.13;13.03;;;;;;;;;;5098623;28;20474;-69
2022/05/27 12:03:45;;;;;;;16.67;12.00;;;;;;;;;;5077006;28;20268;-68
2022/05/27 12:06:15;;;;;;;21.52;12.40;;;;;;;;;;5108854;28;20068;-68
2022/05/27 12:08:48;;;;;;;16.70;11.40;;;;;;;;;;5114026;28;20034;-68
2022/05/27 12:11:21;;;;;;;17.83;10.67;;;;;;;;;;5113467;28;20051;-70
2022/05/27 12:13:54;;;;;;;20.93;12.03;;;;;;;;;;5093567;28;20130;-68
2022/05/27 12:16:24;;;;;;;18.63;10.20;;;;;;;;;;5093428;28;20016;-69
2022/05/27 12:18:57;;;;;;;16.57;12.63;;;;;;;;;;5091428;28;20103;-69
2022/05/27 12:21:25;;;;;;;15.27;10.13;;;;;;;;;;5087930;28;20017;-68
2022/05/27 12:23:57;;;;;;;18.70;11.10;;;;;;;;;;5090143;28;20036;-68
2022/05/27 12:26:28;;;;;;;13.10;9.43;;;;;;;;;;5108003;28;20027;-68
2022/05/27 12:28:57;;;;;;;16.73;10.80;;;;;;;;;;5109700;28;20026;-68
2022/05/27 12:31:24;;;;;;;13.20;10.97;;;;;;;;;;5112583;28;20035;-68
2022/05/27 12:33:50;;;;;;;17.10;10.40;;;;;;;;;;5113482;28;20072;-69
2022/05/27 12:36:23;;;;;;;16.93;10.63;;;;;;;;;;5112655;28;20504;-71
2022/05/27 12:38:52;;;;;;;18.07;8.77;;;;;;;;;;5113459;28;20470;-69
2022/05/27 12:41:32;;;;;;;16.23;9.93;;;;;;;;;;5111045;28;20046;-68
2022/05/27 12:44:00;;;;;;;12.30;8.80;;;;;;;;;;5107690;28;20028;-68
2022/05/27 12:46:32;;;;;;;12.80;7.13;;;;;;;;;;5107634;28;20032;-69
2022/05/27 12:49:17;;;;;;;14.53;9.37;;;;;;;;;;5107376;28;20397;-68
2022/05/27 12:51:46;;;;;;;9.90;6.85;;;;;;;;;;5110507;28;20030;-68
2022/05/27 12:54:32;;;;;;;5.40;3.97;;;;;;;;;;5113024;28;20069;-68
2022/05/27 13:02:34;;;;;;;7.93;5.87;;;;;;;;;;5112526;28;20039;-68
2022/05/27 13:05:05;;;;;;;8.47;5.37;;;;;;;;;;5107406;28;20020;-69
2022/05/27 13:07:35;;;;;;;6.93;4.57;;;;;;;;;;5107327;28;20031;-69
2022/05/27 13:10:31;;;;;;;5.53;3.93;;;;;;;;;;5107169;28;20062;-69
2022/05/27 13:13:02;;;;;;;6.37;4.07;;;;;;;;;;5069783;28;20055;-68
2022/05/27 13:15:29;;;;;;;6.23;4.10;;;;;;;;;;5094361;28;20389;-69
2022/05/27 13:18:14;;;;;;;8.53;3.77;;;;;;;;;;5112886;28;20027;-68
2022/05/27 13:20:40;;;;;;;5.18;2.80;;;;;;;;;;5112403;28;20053;-71
2022/05/27 13:23:10;;;;;;;5.63;2.70;;;;;;;;;;5112787;28;20027;-68
2022/05/27 13:25:41;;;;;;;2.83;1.87;;;;;;;;;;5110703;28;20023;-69
2022/05/27 13:28:26;;;;;;;4.37;2.20;;;;;;;;;;5107009;28;20067;-69
2022/05/27 13:30:56;;;;;;;3.20;1.60;;;;;;;;;;5106579;28;20047;-72
2022/05/27 13:33:32;;;;;;;2.97;1.73;;;;;;;;;;5107050;28;20702;-68
2022/05/27 13:36:03;;;;;;;3.73;1.97;;;;;;;;;;5109203;28;20039;-69
2022/05/27 13:38:33;;;;;;;3.03;1.93;;;;;;;;;;5112591;28;20098;-68
2022/05/27 13:41:00;;;;;;;10.43;1.93;;;;;;;;;;5112133;28;20031;-68
2022/05/27 13:43:50;;;;;;;4.13;1.80;;;;;;;;;;5114818;28;20027;-73
2022/05/27 13:46:21;;;;;;;7.63;1.70;;;;;;;;;;5116229;28;20039;-68
2022/05/27 13:48:52;;;;;;;2.77;1.60;;;;;;;;;;5113162;28;20024;-69
2022/05/27 13:51:21;;;;;;;3.17;1.70;;;;;;;;;;5111060;28;20015;-69
2022/05/27 13:53:48;;;;;;;2.23;1.40;;;;;;;;;;5110910;28;20103;-68
2022/05/27 13:56:23;;;;;;;3.03;1.47;;;;;;;;;;5110705;28;20028;-69
2022/05/27 13:58:52;;;;;;;8.57;1.83;;;;;;;;;;5114294;28;20474;-69
2022/05/27 14:01:21;;;;;;;3.97;1.90;;;;;;;;;;5115968;28;20096;-68
2022/05/27 14:03:50;;;;;;;3.20;1.60;;;;;;;;;;5116517;28;20477;-68
2022/05/27 14:06:43;;;;;;;3.90;1.90;;;;;;;;;;5115889;28;20027;-69
2022/05/27 14:09:14;;;;;;;4.60;1.57;;;;;;;;;;5112751;28;20059;-68
2022/05/27 14:11:44;;;;;;;3.23;1.40;;;;;;;;;;5111043;28;20020;-68
2022/05/27 14:14:11;;;;;;;1.30;0.80;;;;;;;;;;5110174;28;20028;-72
2022/05/27 14:16:42;;;;;;;4.50;0.80;;;;;;;;;;5110544;28;20035;-68
2022/05/27 14:19:17;;;;;;;2.07;1.50;;;;;;;;;;5110198;28;20020;-68
2022/05/27 14:24:36;;;;;;;3.92;1.48;;;;;;;;;;5115927;28;20042;-69
2022/05/27 14:27:03;;;;;;;2.20;1.20;;;;;;;;;;5115933;28;20028;-69
2022/05/27 14:29:30;;;;;;;2.17;1.50;;;;;;;;;;5116035;28;20027;-69
2022/05/27 14:32:02;;;;;;;4.07;1.53;;;;;;;;;;5115632;28;20047;-68
2022/05/27 14:34:32;;;;;;;3.40;1.70;;;;;;;;;;5109757;28;20027;-69
2022/05/27 14:37:04;;;;;;;3.00;1.50;;;;;;;;;;5109802;28;20465;-69
2022/05/27 14:39:31;;;;;;;18.03;11.97;;;;;;;;;;5110155;28;20047;-69
2022/05/27 14:42:00;;;;;;;5.13;2.80;;;;;;;;;;5110022;28;20096;-69
2022/05/27 14:44:38;;;;;;;10.27;2.93;;;;;;;;;;5115655;28;20019;-69
2022/05/27 14:47:11;;;;;;;6.17;4.20;;;;;;;;;;5115396;28;20036;-68
2022/05/27 14:49:42;;;;;;;11.13;4.03;;;;;;;;;;5115738;28;20481;-68
2022/05/27 14:52:19;;;;;;;8.60;3.87;;;;;;;;;;5115299;28;20028;-68
2022/05/27 14:54:46;;;;;;;9.50;3.93;;;;;;;;;;5113252;28;20420;-69
2022/05/27 14:57:19;;;;;;;8.03;4.57;;;;;;;;;;5109648;28;20024;-69
2022/05/27 15:00:06;;;;;;;11.07;6.47;;;;;;;;;;5109412;28;20028;-69
2022/05/27 15:02:50;;;;;;;8.17;5.27;;;;;;;;;;5095854;28;20035;-69
2022/05/27 15:05:29;;;;;;;8.23;4.50;;;;;;;;;;5112165;28;20543;-69
2022/05/27 15:08:05;;;;;;;16.33;8.60;;;;;;;;;;5115076;28;20383;-68
2022/05/27 15:10:37;;;;;;;8.07;4.93;;;;;;;;;;5114431;28;20022;-69
2022/05/27 15:13:22;;;;;;;6.17;3.63;;;;;;;;;;5115161;28;20157;-69
2022/05/27 15:15:48;;;;;;;6.68;3.38;;;;;;;;;;5114983;28;20031;-69
2022/05/27 15:18:28;;;;;;;7.03;3.43;;;;;;;;;;5110812;28;20035;-69
2022/05/27 15:20:58;;;;;;;5.43;3.20;;;;;;;;;;5108798;28;20464;-69
2022/05/27 15:23:30;;;;;;;11.23;4.03;;;;;;;;;;5109178;28;20538;-69
2022/05/27 15:33:06;;;;;;;14.93;4.50;;;;;;;;;;5108366;28;20027;-72
2022/05/27 15:34:27;;;;;;;7.37;3.80;;;;;;;;;;5114967;28;20034;-70
2022/05/27 15:36:56;;;;;;;13.63;3.13;;;;;;;;;;5114635;28;20473;-71
2022/05/27 15:39:24;;;;;;;8.97;4.80;;;;;;;;;;5112855;28;20027;-71
2022/05/27 15:41:51;;;;;;;5.50;3.53;;;;;;;;;;5108527;28;20032;-75
2022/05/27 15:44:18;;;;;;;6.23;2.97;;;;;;;;;;5108705;28;20043;-71
2022/05/27 15:46:44;;;;;;;5.50;3.03;;;;;;;;;;5108950;28;20035;-71